Time;durP1;ratioP1;P1;durP2;ratioP2;P2;SDS_P1;SDS_P2;PMS_P1;PMS_P2;Temp;Humidity;BMP_temperature;BMP_pressure;BME280_temperature;BME280_humidity;BME280_pressure;Samples;Min_cycle;Max_cycle;Signal;HPM_P1;HPM_P2
2021/12/22 00:01:36;;;;;;;36.60;34.20;;;;;;;19.53;37.53;102402.63;4886514;29;20051;-83
2021/12/22 00:04:02;;;;;;;37.55;35.05;;;;;;;19.52;37.84;102414.66;4913932;29;20036;-82
2021/12/22 00:06:30;;;;;;;37.60;35.17;;;;;;;19.51;37.95;102406.69;4931914;29;20032;-86
2021/12/22 00:08:55;;;;;;;36.78;34.30;;;;;;;19.50;37.67;102402.28;4916063;29;20126;-84
2021/12/22 00:11:21;;;;;;;35.30;33.15;;;;;;;19.49;37.70;102406.13;4896851;29;20042;-83
2021/12/22 00:13:46;;;;;;;36.63;34.35;;;;;;;19.47;37.53;102400.91;4905078;29;20071;-83
2021/12/22 00:16:12;;;;;;;35.67;33.47;;;;;;;19.46;37.83;102400.09;4916128;29;20134;-83
2021/12/22 00:18:37;;;;;;;35.17;32.80;;;;;;;19.45;37.69;102395.69;4915628;29;20043;-83
2021/12/22 00:21:04;;;;;;;38.08;35.40;;;;;;;19.44;38.05;102406.91;4888301;29;20036;-83
2021/12/22 00:23:29;;;;;;;37.20;34.85;;;;;;;19.42;37.82;102409.91;4909555;29;20039;-83
2021/12/22 00:25:55;;;;;;;37.67;35.15;;;;;;;19.41;37.86;102410.19;4906072;29;20047;-82
2021/12/22 00:28:20;;;;;;;37.67;35.17;;;;;;;19.38;37.43;102411.53;4899151;29;20044;-83
2021/12/22 00:30:46;;;;;;;37.47;34.58;;;;;;;19.38;37.61;102405.22;4904970;29;20067;-83
2021/12/22 00:33:13;;;;;;;36.63;34.22;;;;;;;19.36;37.69;102412.88;4920775;29;20512;-83
2021/12/22 00:35:48;;;;;;;36.55;34.28;;;;;;;19.34;37.70;102413.13;4929975;29;20049;-83
2021/12/22 00:38:20;;;;;;;35.95;33.75;;;;;;;19.33;37.81;102411.50;4932956;29;20044;-83
2021/12/22 00:40:46;;;;;;;36.75;34.25;;;;;;;19.31;37.50;102399.13;4933139;29;20035;-83
2021/12/22 00:43:12;;;;;;;37.63;35.22;;;;;;;19.30;37.92;102403.78;4922272;29;20027;-83
2021/12/22 00:45:38;;;;;;;37.15;34.80;;;;;;;19.29;37.93;102406.78;4920128;29;20121;-82
2021/12/22 00:48:05;;;;;;;37.83;35.42;;;;;;;19.28;37.69;102405.13;4932055;29;20433;-82
2021/12/22 00:50:30;;;;;;;36.25;33.85;;;;;;;19.26;37.45;102405.41;4930673;29;20059;-83
2021/12/22 00:52:56;;;;;;;37.58;34.80;;;;;;;19.25;37.81;102403.72;4924428;29;20131;-82
2021/12/22 00:55:22;;;;;;;34.45;32.25;;;;;;;19.23;37.61;102405.94;4917219;29;20143;-82
2021/12/22 00:57:48;;;;;;;35.15;32.90;;;;;;;19.23;37.77;102414.16;4916798;29;20036;-84
2021/12/22 01:00:16;;;;;;;37.03;34.72;;;;;;;19.21;37.55;102413.56;4918401;29;20046;-83
2021/12/22 01:02:42;;;;;;;35.97;33.60;;;;;;;19.19;37.55;102410.25;4914062;29;20067;-82
2021/12/22 01:05:09;;;;;;;36.50;33.90;;;;;;;19.19;37.56;102410.25;4918297;29;20044;-83
2021/12/22 01:07:34;;;;;;;35.75;33.42;;;;;;;19.18;37.40;102408.63;4921078;29;20099;-83
2021/12/22 01:10:00;;;;;;;36.55;34.15;;;;;;;19.16;37.61;102400.66;4916445;29;20127;-83
2021/12/22 01:12:25;;;;;;;35.65;33.35;;;;;;;19.15;37.64;102399.00;4931285;29;20044;-83
2021/12/22 01:14:51;;;;;;;35.17;32.83;;;;;;;19.14;37.58;102399.25;4915556;29;20115;-83
2021/12/22 01:17:17;;;;;;;35.33;33.03;;;;;;;19.12;37.80;102395.94;4915242;29;20150;-83
2021/12/22 01:19:57;;;;;;;36.42;34.03;;;;;;;19.11;37.84;102391.56;4935178;29;20451;-83
2021/12/22 01:22:47;;;;;;;35.72;33.33;;;;;;;19.09;37.60;102391.00;4934080;29;20393;-83
2021/12/22 01:25:15;;;;;;;37.97;35.40;;;;;;;19.08;37.75;102390.19;4922056;29;20042;-83
2021/12/22 01:27:43;;;;;;;36.63;34.13;;;;;;;19.07;37.57;102388.50;4932155;29;20079;-84
2021/12/22 01:30:11;;;;;;;38.13;35.28;;;;;;;19.05;37.75;102387.13;4916071;29;20489;-83
2021/12/22 01:32:37;;;;;;;35.28;32.70;;;;;;;19.05;37.88;102378.91;4923266;29;20447;-83
2021/12/22 01:35:05;;;;;;;36.10;33.60;;;;;;;19.03;37.64;102374.53;4934623;29;20063;-83
2021/12/22 01:37:31;;;;;;;35.55;33.15;;;;;;;19.01;37.70;102373.94;4933757;29;20496;-83
2021/12/22 01:39:57;;;;;;;35.67;33.33;;;;;;;19.00;37.51;102375.03;4917336;29;20040;-83
2021/12/22 01:42:22;;;;;;;35.80;33.47;;;;;;;19.00;37.89;102382.44;4925446;29;20043;-83
2021/12/22 01:45:14;;;;;;;36.22;33.88;;;;;;;18.99;37.59;102378.03;4928731;29;20040;-83
2021/12/22 01:50:32;;;;;;;35.55;33.03;;;;;;;18.95;37.69;102385.94;4935239;29;20452;-83
2021/12/22 01:53:00;;;;;;;36.40;33.80;;;;;;;18.95;37.83;102388.69;4924820;29;20130;-83
2021/12/22 01:55:36;;;;;;;36.90;34.10;;;;;;;18.94;37.80;102395.22;4914692;29;20039;-83
2021/12/22 01:58:03;;;;;;;36.85;34.35;;;;;;;18.92;37.89;102397.41;4917039;29;20036;-83
2021/12/22 02:00:28;;;;;;;36.15;33.92;;;;;;;18.90;37.44;102399.59;4915550;29;20033;-84
2021/12/22 02:02:55;;;;;;;38.15;35.45;;;;;;;18.90;37.91;102399.59;4931795;29;20024;-84
2021/12/22 02:05:21;;;;;;;35.53;33.05;;;;;;;18.89;37.87;102400.66;4915608;29;20044;-84
2021/12/22 02:07:49;;;;;;;35.83;33.50;;;;;;;18.88;37.92;102393.53;4916761;29;20051;-83
2021/12/22 02:10:34;;;;;;;35.40;33.05;;;;;;;18.86;37.73;102390.22;4915979;29;20087;-83
2021/12/22 02:13:00;;;;;;;37.15;34.83;;;;;;;18.85;37.71;102396.81;4919174;29;20082;-82
2021/12/22 02:15:29;;;;;;;34.38;32.17;;;;;;;18.85;37.58;102401.44;4933913;29;20161;-83
2021/12/22 02:17:57;;;;;;;36.22;33.72;;;;;;;18.83;37.75;102403.63;4935515;29;20098;-83
2021/12/22 02:20:22;;;;;;;37.27;34.47;;;;;;;18.80;37.77;102403.03;4920794;29;20086;-83
2021/12/22 02:22:48;;;;;;;35.33;32.97;;;;;;;18.79;37.87;102406.84;4911278;29;20810;-84
2021/12/22 02:25:19;;;;;;;36.42;33.92;;;;;;;18.79;37.79;102414.25;4910140;29;20036;-84
2021/12/22 02:27:52;;;;;;;35.47;33.13;;;;;;;18.79;37.78;102414.25;4935035;29;20082;-83
2021/12/22 02:30:25;;;;;;;35.15;32.95;;;;;;;18.77;38.01;102414.53;4926569;29;20115;-84
2021/12/22 02:35:27;;;;;;;;;;;;;;;18.73;37.90;102402.38;4927588;29;20056;-84
2021/12/22 02:37:53;;;;;;;34.10;31.80;;;;;;;18.73;37.88;102396.09;4909576;29;20417;-86
2021/12/22 02:40:26;;;;;;;34.60;32.10;;;;;;;18.72;37.86;102391.69;4934841;29;20495;-83
2021/12/22 02:43:04;;;;;;;33.50;31.35;;;;;;;18.70;37.90;102385.66;4908112;29;20039;-84
2021/12/22 02:45:30;;;;;;;34.63;32.33;;;;;;;18.70;37.88;102385.66;4912070;29;20043;-83
2021/12/22 02:47:56;;;;;;;35.05;32.60;;;;;;;18.69;37.96;102387.56;4899715;29;20035;-83
2021/12/22 02:50:21;;;;;;;34.30;32.10;;;;;;;18.67;37.80;102387.00;4927213;29;20345;-83
2021/12/22 02:55:12;;;;;;;36.72;34.22;;;;;;;18.66;38.10;102388.06;4912367;29;20064;-83
2021/12/22 02:57:44;;;;;;;34.78;32.35;;;;;;;18.65;38.25;102388.31;4921505;29;20035;-83
2021/12/22 03:03:06;;;;;;;34.92;32.75;;;;;;;18.63;37.99;102399.53;4934566;29;20086;-83
2021/12/22 03:05:34;;;;;;;33.97;31.67;;;;;;;18.62;38.00;102402.53;4917496;29;20256;-83
2021/12/22 03:07:59;;;;;;;34.20;31.85;;;;;;;18.62;37.96;102411.56;4901606;29;20407;-84
2021/12/22 03:10:25;;;;;;;34.28;31.88;;;;;;;18.60;38.18;102411.00;4901838;29;20039;-84
2021/12/22 03:12:52;;;;;;;34.78;32.42;;;;;;;18.59;38.11;102407.41;4901572;29;20031;-83
2021/12/22 03:15:19;;;;;;;37.97;35.07;;;;;;;18.58;38.04;102418.63;4901333;29;20111;-84
2021/12/22 03:17:46;;;;;;;35.95;33.42;;;;;;;18.57;38.29;102417.81;4916271;29;20299;-83
2021/12/22 03:20:14;;;;;;;36.17;33.72;;;;;;;18.57;38.20;102415.09;4916960;29;20039;-83
2021/12/22 03:22:43;;;;;;;34.70;32.58;;;;;;;18.55;38.28;102414.50;4917580;29;20059;-83
2021/12/22 03:25:14;;;;;;;;;;;;;;;18.52;38.17;102423.22;4933919;29;20039;-83
2021/12/22 03:27:41;;;;;;;33.10;30.92;;;;;;;18.52;38.14;102423.22;4904129;29;19919;-83
2021/12/22 03:30:08;;;;;;;33.88;31.48;;;;;;;18.51;38.35;102416.09;4903484;29;20513;-83
2021/12/22 03:32:33;;;;;;;35.47;33.20;;;;;;;18.51;38.30;102412.53;4917759;29;20087;-83
2021/12/22 03:34:58;;;;;;;34.97;32.78;;;;;;;18.48;38.25;102413.88;4932651;29;20118;-82
2021/12/22 03:37:24;;;;;;;35.58;33.28;;;;;;;18.48;38.42;102416.59;4914270;29;20040;-83
2021/12/22 03:39:49;;;;;;;34.65;32.45;;;;;;;18.48;38.45;102410.31;4898753;29;20481;-84
2021/12/22 03:42:15;;;;;;;35.40;33.00;;;;;;;18.46;38.20;102402.34;4904354;29;20477;-83
2021/12/22 03:44:41;;;;;;;35.38;33.08;;;;;;;18.46;38.27;102396.88;4929907;29;20071;-84
2021/12/22 03:47:07;;;;;;;33.97;31.77;;;;;;;18.46;38.47;102401.53;4925217;29;20043;-84
2021/12/22 03:49:33;;;;;;;36.35;33.75;;;;;;;18.45;38.26;102395.22;4932600;29;20050;-83
2021/12/22 03:51:59;;;;;;;35.95;33.33;;;;;;;18.43;38.28;102389.19;4931379;29;20458;-83
2021/12/22 03:54:25;;;;;;;36.63;34.15;;;;;;;18.44;38.28;102387.25;4930935;29;20174;-83
2021/12/22 03:56:50;;;;;;;34.13;31.65;;;;;;;18.43;38.52;102397.38;4933299;29;20483;-83
2021/12/22 03:59:17;;;;;;;35.78;33.30;;;;;;;18.41;38.15;102396.00;4932271;29;20151;-83
2021/12/22 04:01:42;;;;;;;33.97;31.77;;;;;;;18.41;38.36;102396.00;4898680;29;20422;-84
2021/12/22 04:04:13;;;;;;;32.97;30.80;;;;;;;18.40;38.35;102397.91;4917014;29;20076;-84
2021/12/22 04:06:39;;;;;;;34.10;31.92;;;;;;;18.39;38.49;102393.50;4933194;29;20090;-83
2021/12/22 04:09:05;;;;;;;34.00;31.77;;;;;;;18.38;38.36;102389.13;4901824;29;20186;-83
2021/12/22 04:11:31;;;;;;;34.15;32.05;;;;;;;18.38;38.36;102391.84;4929422;29;20423;-83
2021/12/22 04:13:56;;;;;;;33.80;31.65;;;;;;;18.37;38.41;102379.28;4932307;29;20039;-84
2021/12/22 04:16:22;;;;;;;35.78;33.20;;;;;;;18.36;38.36;102383.06;4933848;29;20420;-83
2021/12/22 04:18:47;;;;;;;36.53;34.03;;;;;;;18.36;38.50;102381.16;4934905;29;20036;-84
2021/12/22 04:21:13;;;;;;;34.20;31.80;;;;;;;18.35;38.36;102384.16;4916821;29;20400;-83
2021/12/22 04:23:38;;;;;;;34.90;32.55;;;;;;;18.32;38.42;102385.50;4916451;29;20461;-83
2021/12/22 04:26:03;;;;;;;34.05;31.85;;;;;;;18.32;38.30;102379.19;4892710;29;20035;-83
2021/12/22 04:28:29;;;;;;;35.53;33.10;;;;;;;18.32;38.71;102381.91;4932354;29;20386;-83
2021/12/22 04:30:55;;;;;;;34.03;31.80;;;;;;;18.31;38.51;102377.53;4902961;29;20158;-85
2021/12/22 04:33:20;;;;;;;35.75;33.13;;;;;;;18.30;38.41;102376.72;4922742;29;20289;-84
2021/12/22 04:35:47;;;;;;;33.85;31.65;;;;;;;18.29;38.35;102360.53;4929670;29;20457;-83
2021/12/22 04:38:13;;;;;;;34.78;32.50;;;;;;;18.28;38.35;102369.84;4934811;29;20038;-83
2021/12/22 04:40:38;;;;;;;34.55;32.35;;;;;;;18.27;38.23;102374.50;4936181;29;20032;-83
2021/12/22 04:43:04;;;;;;;32.78;30.83;;;;;;;18.27;38.33;102384.59;4911277;29;20046;-83
2021/12/22 04:45:30;;;;;;;35.60;33.03;;;;;;;18.26;38.29;102382.94;4923134;29;20127;-83
2021/12/22 04:47:56;;;;;;;33.25;31.13;;;;;;;18.26;38.76;102389.25;4908459;29;20020;-83
2021/12/22 04:50:22;;;;;;;33.70;31.58;;;;;;;18.24;38.45;102385.94;4919109;29;20079;-83
2021/12/22 04:55:20;;;;;;;32.78;30.20;;;;;;;18.23;38.57;102378.81;4926959;29;20051;-83
2021/12/22 04:57:45;;;;;;;31.67;29.38;;;;;;;18.22;38.25;102382.63;4918986;29;20032;-83
2021/12/22 05:00:13;;;;;;;32.72;30.42;;;;;;;18.21;38.50;102372.75;4915819;29;20473;-83
2021/12/22 05:02:39;;;;;;;32.97;30.73;;;;;;;18.19;38.43;102365.91;4933402;29;20120;-83
2021/12/22 05:05:05;;;;;;;32.13;30.13;;;;;;;18.19;38.54;102358.50;4924163;29;20205;-83
2021/12/22 05:07:30;;;;;;;33.55;31.38;;;;;;;18.19;38.27;102360.44;4916830;29;20087;-83
2021/12/22 05:09:56;;;;;;;32.15;30.13;;;;;;;18.17;38.38;102356.06;4916932;29;20378;-84
2021/12/22 05:12:22;;;;;;;34.45;32.25;;;;;;;18.17;38.45;102360.69;4900470;29;20040;-83
2021/12/22 05:14:50;;;;;;;31.77;29.73;;;;;;;18.15;38.48;102355.47;4927558;29;20452;-83
2021/12/22 05:17:22;;;;;;;32.95;30.75;;;;;;;18.15;38.75;102354.66;4920372;29;20078;-84
2021/12/22 05:19:48;;;;;;;32.17;29.90;;;;;;;18.13;38.29;102352.16;4935158;29;20106;-84
2021/12/22 05:22:14;;;;;;;32.45;30.35;;;;;;;18.14;38.47;102361.19;4936538;29;20032;-84
2021/12/22 05:24:39;;;;;;;31.60;29.45;;;;;;;18.13;38.56;102356.81;4913281;29;20036;-83
2021/12/22 05:27:08;;;;;;;32.97;30.98;;;;;;;18.11;38.53;102357.06;4918051;29;20449;-83
2021/12/22 05:29:33;;;;;;;33.28;31.02;;;;;;;18.11;38.55;102353.50;4916412;29;20605;-83
2021/12/22 05:32:01;;;;;;;33.42;31.08;;;;;;;18.10;38.62;102347.19;4900607;29;20134;-85
2021/12/22 05:34:26;;;;;;;32.47;30.38;;;;;;;18.09;38.45;102348.28;4923777;29;20075;-82
2021/12/22 05:36:51;;;;;;;32.03;29.92;;;;;;;18.09;38.52;102355.66;4931986;29;20111;-82
2021/12/22 05:39:17;;;;;;;32.22;30.08;;;;;;;18.08;38.39;102349.34;4926780;29;20393;-83
2021/12/22 05:41:42;;;;;;;32.13;29.92;;;;;;;18.07;38.54;102347.72;4918784;29;20050;-84
2021/12/22 05:44:08;;;;;;;32.47;30.40;;;;;;;18.07;38.40;102350.44;4934728;29;20031;-83
2021/12/22 05:46:33;;;;;;;32.55;30.45;;;;;;;18.06;38.70;102348.78;4909153;29;20043;-85
2021/12/22 05:48:58;;;;;;;32.33;30.23;;;;;;;18.05;38.59;102343.59;4915228;29;20515;-84
2021/12/22 05:51:27;;;;;;;32.80;30.75;;;;;;;18.03;38.75;102343.81;4915867;29;20032;-84
2021/12/22 05:53:52;;;;;;;31.83;29.88;;;;;;;18.03;38.58;102343.81;4914993;29;20079;-84
2021/12/22 05:56:17;;;;;;;33.35;31.15;;;;;;;18.02;38.69;102350.38;4914829;29;20072;-85
2021/12/22 05:58:44;;;;;;;32.75;30.55;;;;;;;18.02;38.62;102350.38;4918656;29;20083;-85
2021/12/22 06:01:10;;;;;;;32.22;30.10;;;;;;;18.01;38.76;102343.25;4902616;29;20083;-85
2021/12/22 06:03:36;;;;;;;32.80;30.60;;;;;;;18.01;38.69;102347.91;4934303;29;20043;-84
2021/12/22 06:06:01;;;;;;;32.45;30.35;;;;;;;17.99;38.74;102348.13;4930848;29;20456;-85
2021/12/22 06:08:26;;;;;;;31.92;30.02;;;;;;;17.99;38.69;102344.59;4927501;29;20041;-85
2021/12/22 06:10:52;;;;;;;32.53;30.42;;;;;;;17.98;38.61;102345.69;4906789;29;20530;-85
2021/12/22 06:13:17;;;;;;;32.95;30.95;;;;;;;17.97;38.57;102347.59;4907004;29;20047;-84
2021/12/22 06:15:43;;;;;;;32.95;30.88;;;;;;;17.97;38.78;102349.47;4928031;29;20040;-84
2021/12/22 06:18:08;;;;;;;32.03;30.13;;;;;;;17.96;38.64;102343.19;4909602;29;20362;-85
2021/12/22 06:20:35;;;;;;;32.55;30.55;;;;;;;17.95;38.83;102344.28;4915629;29;20062;-85
2021/12/22 06:23:00;;;;;;;32.17;29.85;;;;;;;17.95;38.67;102347.00;4918490;29;20425;-83
2021/12/22 06:25:26;;;;;;;32.50;30.40;;;;;;;17.95;38.65;102336.06;4933338;29;20043;-83
2021/12/22 06:27:52;;;;;;;32.17;29.95;;;;;;;17.95;38.76;102341.53;4934448;29;20031;-83
2021/12/22 06:30:20;;;;;;;32.22;30.20;;;;;;;17.93;38.64;102340.97;4933208;29;20520;-82
2021/12/22 06:32:50;;;;;;;31.90;29.70;;;;;;;17.93;38.69;102340.97;4930178;29;20529;-83
2021/12/22 06:35:16;;;;;;;32.30;30.00;;;;;;;17.92;39.21;102339.31;4915509;29;20033;-84
2021/12/22 06:37:42;;;;;;;34.55;31.67;;;;;;;17.92;39.54;102340.13;4922634;29;20054;-83
2021/12/22 06:40:08;;;;;;;60.53;37.40;;;;;;;17.94;40.33;102342.59;4910724;29;20138;-84
2021/12/22 06:42:33;;;;;;;43.90;35.95;;;;;;;17.93;40.70;102341.78;4933499;29;20040;-83
2021/12/22 06:44:59;;;;;;;38.17;34.38;;;;;;;17.93;40.50;102341.78;4934188;29;20457;-83
2021/12/22 06:47:25;;;;;;;37.63;34.03;;;;;;;17.93;40.85;102340.97;4910672;29;20067;-84
2021/12/22 06:49:50;;;;;;;35.05;31.98;;;;;;;17.92;40.92;102342.88;4900185;29;20035;-83
2021/12/22 06:52:16;;;;;;;35.63;32.30;;;;;;;17.92;40.91;102348.34;4918057;29;20532;-84
2021/12/22 06:54:41;;;;;;;37.03;33.70;;;;;;;17.92;40.60;102351.06;4924986;29;20044;-84
2021/12/22 06:57:07;;;;;;;35.00;32.10;;;;;;;17.91;40.76;102348.59;4921376;29;20039;-85
2021/12/22 06:59:32;;;;;;;35.63;32.65;;;;;;;17.91;40.63;102351.31;4888275;29;20524;-84
2021/12/22 07:01:58;;;;;;;34.00;31.38;;;;;;;17.90;40.56;102355.97;4933671;29;20495;-84
2021/12/22 07:04:24;;;;;;;35.10;32.33;;;;;;;17.88;40.28;102355.38;4916226;29;20028;-84
2021/12/22 07:06:49;;;;;;;32.80;30.10;;;;;;;17.88;40.29;102349.91;4917316;29;20058;-85
2021/12/22 07:09:15;;;;;;;32.92;30.60;;;;;;;17.87;40.24;102351.00;4931738;29;20028;-84
2021/12/22 07:11:42;;;;;;;34.13;31.80;;;;;;;17.88;40.28;102344.44;4932928;29;20047;-84
2021/12/22 07:14:08;;;;;;;32.85;30.45;;;;;;;17.89;40.48;102350.72;4934670;29;20440;-84
2021/12/22 07:16:34;;;;;;;33.00;30.60;;;;;;;17.90;40.48;102352.41;4923816;29;20038;-84
2021/12/22 07:18:59;;;;;;;32.90;30.67;;;;;;;17.91;40.59;102348.59;4925343;29;20392;-84
2021/12/22 07:21:25;;;;;;;32.78;30.27;;;;;;;17.92;40.79;102347.53;4899218;29;20118;-84
2021/12/22 07:23:51;;;;;;;33.00;30.65;;;;;;;17.95;40.72;102349.75;4922834;29;20083;-83
2021/12/22 07:26:17;;;;;;;32.60;30.30;;;;;;;17.95;40.82;102358.75;4931670;29;20043;-80
2021/12/22 07:28:45;;;;;;;33.95;31.55;;;;;;;17.97;41.02;102355.78;4928820;29;20042;-81
2021/12/22 07:31:11;;;;;;;33.63;31.13;;;;;;;18.00;41.03;102357.19;4916153;29;20060;-78
2021/12/22 07:33:37;;;;;;;34.22;31.60;;;;;;;18.01;41.36;102356.91;4933041;29;20079;-79
2021/12/22 07:36:05;;;;;;;33.78;31.55;;;;;;;18.03;41.44;102360.22;4933453;29;20031;-79
2021/12/22 07:38:43;;;;;;;33.13;30.95;;;;;;;18.06;41.32;102353.44;4912873;29;20119;-80
2021/12/22 07:41:09;;;;;;;32.00;29.90;;;;;;;18.07;41.59;102355.91;4917255;29;20054;-79
2021/12/22 07:43:36;;;;;;;34.15;31.70;;;;;;;18.08;41.78;102352.09;4911701;29;20504;-80
2021/12/22 07:46:02;;;;;;;34.35;31.73;;;;;;;18.11;42.27;102356.22;4928072;29;20134;-79
2021/12/22 07:48:28;;;;;;;33.47;30.83;;;;;;;18.13;42.52;102348.59;4929606;29;20670;-80
2021/12/22 07:50:54;;;;;;;33.15;30.85;;;;;;;18.14;42.87;102342.88;4929037;29;20028;-85
2021/12/22 07:53:21;;;;;;;32.72;30.52;;;;;;;18.16;42.96;102346.16;4928146;29;20042;-81
2021/12/22 07:55:46;;;;;;;34.88;32.40;;;;;;;18.19;42.93;102346.75;4912785;29;20051;-82
2021/12/22 07:58:12;;;;;;;34.67;31.58;;;;;;;18.21;42.98;102347.31;4916305;29;20040;-79
2021/12/22 08:00:38;;;;;;;34.72;32.15;;;;;;;18.23;43.03;102337.78;4931138;29;20041;-80
2021/12/22 08:03:04;;;;;;;33.55;31.27;;;;;;;18.25;42.95;102341.09;4932642;29;20040;-80
2021/12/22 08:05:30;;;;;;;32.92;30.23;;;;;;;18.27;43.15;102341.69;4915509;29;20040;-82
2021/12/22 08:07:56;;;;;;;32.90;30.90;;;;;;;18.29;42.99;102339.47;4932070;29;20039;-82
2021/12/22 08:10:22;;;;;;;32.95;30.75;;;;;;;18.32;43.21;102346.34;4914133;29;20047;-81
2021/12/22 08:12:47;;;;;;;34.60;32.10;;;;;;;18.33;42.91;102346.13;4931068;29;20041;-82
2021/12/22 08:15:14;;;;;;;34.35;32.15;;;;;;;18.35;43.05;102346.69;4918007;29;20125;-81
2021/12/22 08:17:40;;;;;;;34.92;32.67;;;;;;;18.37;42.81;102350.00;4930012;29;20039;-83
2021/12/22 08:20:06;;;;;;;33.45;31.30;;;;;;;18.39;42.74;102355.19;4911001;29;20066;-79
2021/12/22 08:22:31;;;;;;;33.45;31.33;;;;;;;18.40;42.58;102345.94;4929718;29;20039;-81
2021/12/22 08:24:56;;;;;;;33.78;31.58;;;;;;;18.42;42.26;102348.38;4913086;29;20108;-83
2021/12/22 08:27:22;;;;;;;34.83;32.60;;;;;;;18.43;42.28;102341.84;4899715;29;20031;-81
2021/12/22 08:29:49;;;;;;;36.55;34.00;;;;;;;18.44;41.84;102344.31;4883601;29;20043;-81
2021/12/22 08:32:17;;;;;;;34.00;31.77;;;;;;;18.46;41.79;102350.34;4928582;29;20063;-81
2021/12/22 08:34:46;;;;;;;35.58;32.97;;;;;;;18.46;41.79;102353.09;4922760;29;20110;-81
2021/12/22 08:39:57;;;;;;;36.78;34.05;;;;;;;18.48;41.11;102347.38;4931922;29;20397;-81
2021/12/22 08:42:23;;;;;;;34.80;32.60;;;;;;;18.49;41.18;102347.09;4931812;29;20024;-83
2021/12/22 08:44:50;;;;;;;37.10;34.65;;;;;;;18.50;41.10;102345.22;4929827;29;20050;-82
2021/12/22 08:47:16;;;;;;;34.28;32.08;;;;;;;18.52;40.80;102343.03;4916362;29;20063;-81
2021/12/22 08:49:43;;;;;;;36.78;34.22;;;;;;;18.52;40.50;102346.63;4930189;29;20035;-83
2021/12/22 08:52:09;;;;;;;34.90;32.63;;;;;;;18.54;40.61;102343.59;4932704;29;20032;-83
2021/12/22 08:54:35;;;;;;;35.35;33.20;;;;;;;18.55;40.61;102340.63;4930756;29;20388;-81
2021/12/22 08:57:00;;;;;;;34.20;31.73;;;;;;;18.56;40.35;102338.69;4914531;29;20350;-81
2021/12/22 08:59:26;;;;;;;34.65;32.45;;;;;;;18.57;40.14;102335.72;4910666;29;20039;-79
2021/12/22 09:01:53;;;;;;;36.72;34.22;;;;;;;18.57;40.19;102332.97;4924370;29;20039;-81
2021/12/22 09:04:19;;;;;;;37.10;34.58;;;;;;;18.59;40.10;102336.25;4924353;29;20038;-79
2021/12/22 09:06:46;;;;;;;36.85;34.45;;;;;;;18.60;40.11;102337.94;4927206;29;20405;-81
2021/12/22 09:09:13;;;;;;;36.95;34.22;;;;;;;18.62;39.80;102337.66;4931005;29;20070;-81
2021/12/22 09:11:39;;;;;;;35.42;33.13;;;;;;;18.62;39.92;102343.13;4926610;29;20048;-80
2021/12/22 09:14:06;;;;;;;37.08;34.42;;;;;;;18.63;39.46;102344.81;4925773;29;20043;-79
2021/12/22 09:16:33;;;;;;;36.92;34.45;;;;;;;18.64;39.37;102343.69;4916222;29;20040;-79
2021/12/22 09:18:59;;;;;;;36.73;34.07;;;;;;;18.65;39.42;102345.38;4927030;29;20393;-77
2021/12/22 09:21:24;;;;;;;35.72;33.53;;;;;;;18.66;39.04;102341.53;4927056;29;20036;-81
2021/12/22 09:23:50;;;;;;;37.55;35.10;;;;;;;18.68;39.28;102346.78;4925628;29;20413;-80
2021/12/22 09:26:16;;;;;;;37.30;34.50;;;;;;;18.69;39.09;102331.97;4930624;29;20184;-80
2021/12/22 09:28:41;;;;;;;37.17;34.90;;;;;;;18.69;39.12;102332.81;4928793;29;20119;-81
2021/12/22 09:31:07;;;;;;;35.75;33.35;;;;;;;18.70;39.05;102333.66;4923318;29;20064;-77
2021/12/22 09:33:33;;;;;;;36.85;34.35;;;;;;;18.71;38.66;102327.09;4912648;29;20044;-77
2021/12/22 09:36:00;;;;;;;37.00;34.65;;;;;;;18.72;39.12;102326.84;4908396;29;20078;-78
2021/12/22 09:38:26;;;;;;;36.72;34.35;;;;;;;18.72;38.87;102317.78;4897149;29;20409;-80
2021/12/22 09:40:51;;;;;;;37.78;35.38;;;;;;;18.72;38.94;102310.41;4908519;29;20033;-81
2021/12/22 09:43:17;;;;;;;36.83;34.38;;;;;;;18.74;38.87;102316.44;4909289;29;20033;-80
2021/12/22 09:45:47;;;;;;;36.35;33.95;;;;;;;18.75;38.65;102325.50;4912514;29;20077;-80
2021/12/22 09:50:50;;;;;;;34.67;32.42;;;;;;;18.77;38.85;102337.88;4897431;29;20048;-80
2021/12/22 09:53:20;;;;;;;34.88;32.58;;;;;;;18.77;38.64;102346.09;4909525;29;20057;-81
2021/12/22 09:55:46;;;;;;;37.22;34.72;;;;;;;18.78;38.68;102334.03;4894683;29;20032;-81
2021/12/22 09:58:12;;;;;;;37.20;34.88;;;;;;;18.78;38.75;102336.78;4908551;29;20048;-82
2021/12/22 10:00:39;;;;;;;36.50;33.85;;;;;;;18.79;38.65;102337.59;4890276;29;20434;-79
2021/12/22 10:03:06;;;;;;;36.15;33.85;;;;;;;18.80;38.44;102318.19;4879952;29;20482;-84
2021/12/22 10:05:33;;;;;;;35.50;33.40;;;;;;;18.81;38.51;102321.75;4879492;29;20044;-77
2021/12/22 10:08:14;;;;;;;38.40;34.75;;;;;;;18.81;38.48;102308.06;4892273;29;20085;-79
2021/12/22 10:10:47;;;;;;;36.67;34.08;;;;;;;18.83;38.49;102316.00;4912574;29;20115;-76
2021/12/22 10:13:18;;;;;;;35.88;33.53;;;;;;;18.84;38.48;102306.69;4910789;29;20087;-80
2021/12/22 10:15:44;;;;;;;37.40;34.85;;;;;;;18.85;38.62;102308.34;4924979;29;20024;-77
2021/12/22 10:18:13;;;;;;;35.28;33.00;;;;;;;18.86;38.46;102313.56;4905289;29;20052;-81
2021/12/22 10:20:40;;;;;;;34.85;32.42;;;;;;;18.87;38.60;102309.72;4895445;29;20071;-78
2021/12/22 10:23:17;;;;;;;35.55;33.35;;;;;;;18.88;38.40;102303.19;4913428;29;20043;-77
2021/12/22 10:25:43;;;;;;;38.72;36.25;;;;;;;18.89;38.65;102304.81;4893427;29;20036;-78
2021/12/22 10:28:16;;;;;;;33.28;31.17;;;;;;;18.90;38.66;102301.03;4897381;29;20035;-78
2021/12/22 10:30:42;;;;;;;35.28;32.97;;;;;;;18.91;38.82;102305.41;4889875;29;20047;-79
2021/12/22 10:33:15;;;;;;;34.05;32.00;;;;;;;18.92;38.63;102298.81;4929049;29;20518;-80
2021/12/22 10:35:49;;;;;;;36.40;34.10;;;;;;;18.94;38.94;102306.78;4929196;29;20123;-80
2021/12/22 10:38:18;;;;;;;34.42;32.22;;;;;;;18.93;38.77;102300.50;4931406;29;20038;-78
2021/12/22 10:40:55;;;;;;;37.13;34.85;;;;;;;18.96;39.09;102297.22;4925332;29;20536;-81
2021/12/22 10:43:24;;;;;;;36.67;34.38;;;;;;;18.97;38.99;102300.78;4927678;29;20039;-78
2021/12/22 10:45:56;;;;;;;37.85;35.45;;;;;;;18.98;38.86;102297.78;4923795;29;20031;-81
2021/12/22 10:51:26;;;;;;;34.15;32.05;;;;;;;18.99;39.04;102285.75;4923551;29;20106;-81
2021/12/22 10:53:53;;;;;;;38.47;35.53;;;;;;;18.99;39.00;102285.75;4925985;29;20027;-81
2021/12/22 10:56:30;;;;;;;34.97;32.90;;;;;;;19.01;38.92;102277.28;4928049;29;20091;-81
2021/12/22 10:59:09;;;;;;;35.28;33.05;;;;;;;19.02;38.86;102276.19;4917649;29;20074;-84
2021/12/22 11:01:38;;;;;;;35.17;32.95;;;;;;;19.03;38.93;102267.72;4920526;29;20039;-83
2021/12/22 11:04:14;;;;;;;34.92;32.85;;;;;;;19.03;38.85;102273.19;4926730;29;20028;-80
2021/12/22 11:06:40;;;;;;;36.28;33.78;;;;;;;19.04;38.94;102265.78;4924416;29;20109;-82
2021/12/22 11:09:13;;;;;;;35.65;33.45;;;;;;;19.06;39.01;102265.53;4919258;29;20043;-80
2021/12/22 11:11:42;;;;;;;35.53;33.47;;;;;;;19.07;38.97;102272.66;4925573;29;20043;-80
2021/12/22 11:14:24;;;;;;;37.95;35.50;;;;;;;19.09;38.93;102267.75;4927847;29;20035;-81
2021/12/22 11:16:52;;;;;;;36.47;34.17;;;;;;;19.08;39.14;102269.66;4927900;29;20106;-84
2021/12/22 11:19:18;;;;;;;34.80;32.75;;;;;;;19.09;38.92;102271.31;4926060;29;20055;-83
2021/12/22 11:21:57;;;;;;;36.47;34.35;;;;;;;19.11;39.44;102271.06;4911512;29;20134;-80
2021/12/22 11:24:23;;;;;;;35.85;33.50;;;;;;;19.12;38.92;102272.69;4927235;29;20086;-80
2021/12/22 11:26:49;;;;;;;36.67;34.25;;;;;;;19.12;38.71;102268.03;4924902;29;20039;-77
2021/12/22 11:29:14;;;;;;;34.53;32.10;;;;;;;19.13;38.87;102260.66;4927728;29;20044;-78
2021/12/22 11:31:40;;;;;;;34.63;32.42;;;;;;;19.14;38.89;102265.88;4886432;29;1109305;-79